Time;durP1;ratioP1;P1;durP2;ratioP2;P2;SDS_P1;SDS_P2;PMS_P1;PMS_P2;Temp;Humidity;BMP_temperature;BMP_pressure;BME280_temperature;BME280_humidity;BME280_pressure;Samples;Min_cycle;Max_cycle;Signal;HPM_P1;HPM_P2
2022/07/16 00:02:12;;;;;;;5.72;2.30;;;16.80;99.90;;;;;;5002236;28;20049;-41
2022/07/16 00:04:39;;;;;;;3.97;2.13;;;16.80;99.90;;;;;;5014061;28;20465;-43
2022/07/16 00:07:05;;;;;;;4.80;2.78;;;16.80;99.90;;;;;;5001269;28;20060;-43
2022/07/16 00:09:31;;;;;;;5.40;2.22;;;16.80;99.90;;;;;;5011738;28;20053;-44
2022/07/16 00:11:57;;;;;;;4.00;2.20;;;16.80;99.90;;;;;;5021149;28;20085;-44
2022/07/16 00:14:24;;;;;;;5.95;2.47;;;16.90;99.90;;;;;;5021967;28;20052;-44
2022/07/16 00:16:50;;;;;;;2.90;2.30;;;16.90;99.90;;;;;;5022369;28;20052;-44
2022/07/16 00:19:18;;;;;;;5.18;2.05;;;16.90;99.90;;;;;;5022397;28;20056;-42
2022/07/16 00:21:49;;;;;;;5.18;2.13;;;17.00;99.90;;;;;;5022313;28;20603;-43
2022/07/16 00:24:16;;;;;;;3.50;2.20;;;17.00;99.90;;;;;;5014826;28;20500;-43
2022/07/16 00:26:43;;;;;;;4.03;2.50;;;17.10;99.90;;;;;;5022262;28;20544;-45
2022/07/16 00:29:10;;;;;;;4.47;2.15;;;17.10;99.90;;;;;;4987670;28;20072;-44
2022/07/16 00:31:36;;;;;;;6.63;2.78;;;17.20;99.90;;;;;;5023033;28;20053;-43
2022/07/16 00:34:06;;;;;;;4.28;2.30;;;17.20;99.90;;;;;;5005037;28;20053;-44
2022/07/16 00:36:33;;;;;;;6.18;2.75;;;17.20;99.90;;;;;;5022404;28;20099;-43
2022/07/16 00:38:59;;;;;;;7.70;3.28;;;17.20;99.90;;;;;;5022203;28;20125;-43
2022/07/16 00:41:25;;;;;;;5.95;2.97;;;17.20;99.90;;;;;;5022269;28;20048;-43
2022/07/16 00:44:05;;;;;;;7.38;3.33;;;17.20;99.90;;;;;;5023011;28;20054;-44
2022/07/16 00:46:32;;;;;;;5.95;3.13;;;17.20;99.90;;;;;;5004424;28;20103;-44
2022/07/16 00:48:58;;;;;;;6.85;3.20;;;17.20;99.90;;;;;;5021750;28;20061;-44
2022/07/16 00:51:26;;;;;;;7.75;3.38;;;17.20;99.90;;;;;;5003367;28;20143;-43
2022/07/16 00:53:53;;;;;;;10.10;3.50;;;17.20;99.90;;;;;;5022151;28;20107;-44
2022/07/16 00:56:20;;;;;;;7.05;3.42;;;17.20;99.90;;;;;;5022180;28;20107;-44
2022/07/16 00:58:47;;;;;;;8.00;4.30;;;17.20;99.90;;;;;;5017637;28;20489;-44
2022/07/16 01:01:14;;;;;;;8.93;4.32;;;17.10;99.90;;;;;;4993937;28;20062;-44
2022/07/16 01:03:42;;;;;;;13.05;5.00;;;17.10;99.90;;;;;;5002400;28;20061;-46
2022/07/16 01:06:09;;;;;;;8.23;4.70;;;17.10;99.90;;;;;;5012936;28;20132;-43
2022/07/16 01:08:38;;;;;;;8.35;4.10;;;17.00;99.90;;;;;;5003086;28;20053;-51
2022/07/16 01:11:19;;;;;;;7.00;4.00;;;16.90;99.90;;;;;;5011983;28;20053;-43
2022/07/16 01:13:47;;;;;;;5.10;3.47;;;16.80;99.90;;;;;;5024509;28;20068;-45
2022/07/16 01:16:14;;;;;;;6.03;2.88;;;16.70;99.90;;;;;;5024114;28;20400;-43
2022/07/16 01:18:42;;;;;;;4.72;2.72;;;16.60;99.90;;;;;;5005660;28;20779;-44
2022/07/16 01:21:08;;;;;;;4.82;2.55;;;16.50;99.90;;;;;;5025861;28;20049;-42
2022/07/16 01:23:35;;;;;;;4.15;2.05;;;16.40;99.90;;;;;;4978366;28;20060;-44
2022/07/16 01:26:01;;;;;;;5.85;2.80;;;16.40;99.90;;;;;;5005001;28;20045;-42
2022/07/16 01:28:28;;;;;;;6.70;2.95;;;16.40;99.90;;;;;;5007379;28;20376;-42
2022/07/16 01:30:55;;;;;;;6.72;2.80;;;16.30;99.90;;;;;;5013665;28;20042;-43
2022/07/16 01:33:27;;;;;;;5.72;2.33;;;16.40;99.90;;;;;;5021045;28;20056;-43
2022/07/16 01:36:00;;;;;;;4.40;2.10;;;16.30;99.90;;;;;;5022266;28;20051;-43
2022/07/16 01:38:27;;;;;;;8.95;2.47;;;16.30;99.90;;;;;;5017048;28;20121;-43
2022/07/16 01:40:53;;;;;;;6.85;2.35;;;16.30;99.90;;;;;;5009466;28;20039;-48
2022/07/16 01:43:24;;;;;;;3.53;2.40;;;16.20;99.90;;;;;;5004484;28;20061;-43
2022/07/16 01:45:50;;;;;;;5.93;2.40;;;16.20;99.90;;;;;;5022403;28;20563;-44
2022/07/16 01:48:17;;;;;;;11.13;2.97;;;16.20;99.90;;;;;;5003902;28;20460;-44
2022/07/16 01:50:43;;;;;;;7.03;2.78;;;16.20;99.90;;;;;;5022706;28;20057;-43
2022/07/16 01:53:11;;;;;;;4.90;2.25;;;16.20;99.90;;;;;;5022293;28;20080;-44
2022/07/16 01:55:38;;;;;;;8.48;2.30;;;16.20;99.90;;;;;;5023278;28;20132;-43
2022/07/16 01:58:05;;;;;;;10.00;2.60;;;16.20;99.90;;;;;;5024805;28;20634;-43
2022/07/16 02:00:35;;;;;;;7.13;2.22;;;16.20;99.90;;;;;;5018943;28;20049;-44
2022/07/16 02:03:01;;;;;;;8.35;2.60;;;16.20;99.90;;;;;;5022528;28;20050;-45
2022/07/16 02:05:27;;;;;;;8.35;2.33;;;16.10;99.90;;;;;;5011088;28;20054;-44
2022/07/16 02:07:53;;;;;;;8.38;2.20;;;16.10;99.90;;;;;;5018042;28;20045;-43
2022/07/16 02:10:21;;;;;;;9.40;2.80;;;16.10;99.90;;;;;;5021542;28;20056;-44
2022/07/16 02:12:47;;;;;;;7.22;2.88;;;16.20;99.90;;;;;;5008138;28;20057;-46
2022/07/16 02:15:13;;;;;;;7.53;2.42;;;16.10;99.90;;;;;;5008102;28;20057;-43
2022/07/16 02:17:41;;;;;;;4.07;2.17;;;16.10;99.90;;;;;;5026571;28;20049;-44
2022/07/16 02:20:09;;;;;;;6.93;2.03;;;16.10;99.90;;;;;;5025468;28;20120;-42
2022/07/16 02:22:36;;;;;;;6.03;2.00;;;16.10;99.90;;;;;;5016939;28;20825;-49
2022/07/16 02:25:03;;;;;;;4.55;1.85;;;16.10;99.90;;;;;;5019693;28;20346;-43
2022/07/16 02:27:29;;;;;;;4.57;1.85;;;16.10;99.90;;;;;;4988695;28;20056;-50
2022/07/16 02:29:55;;;;;;;5.45;2.85;;;16.10;99.90;;;;;;5023251;28;20045;-44
2022/07/16 02:32:22;;;;;;;4.60;2.25;;;16.10;99.90;;;;;;5017912;28;20049;-45
2022/07/16 02:34:48;;;;;;;7.05;1.92;;;16.10;99.90;;;;;;5025392;28;20053;-44
2022/07/16 02:37:15;;;;;;;7.95;2.20;;;16.10;99.90;;;;;;5007080;28;20049;-42
2022/07/16 02:39:41;;;;;;;5.00;2.28;;;16.10;99.90;;;;;;5025715;28;20068;-43
2022/07/16 02:42:07;;;;;;;5.25;2.25;;;16.10;99.90;;;;;;5025788;28;20046;-43
2022/07/16 02:44:33;;;;;;;7.05;1.92;;;16.10;99.90;;;;;;5026070;28;20144;-45
2022/07/16 02:46:59;;;;;;;5.57;2.35;;;16.00;99.90;;;;;;5007528;28;20049;-43
2022/07/16 02:49:26;;;;;;;4.60;2.45;;;16.00;99.90;;;;;;5025997;28;20060;-44
2022/07/16 02:51:52;;;;;;;4.65;2.00;;;16.00;99.90;;;;;;5024726;28;20053;-45
2022/07/16 02:54:18;;;;;;;5.90;2.20;;;15.90;99.90;;;;;;5025471;28;20680;-43
2022/07/16 02:56:44;;;;;;;6.85;2.20;;;15.90;99.90;;;;;;5024269;28;20377;-43
2022/07/16 02:59:11;;;;;;;8.07;2.28;;;15.90;99.90;;;;;;5019299;28;20052;-42
2022/07/16 03:01:38;;;;;;;6.65;2.08;;;15.80;99.90;;;;;;5006428;28;20543;-45
2022/07/16 03:04:04;;;;;;;4.50;2.10;;;15.80;99.90;;;;;;5020443;28;20512;-43
2022/07/16 03:06:31;;;;;;;7.38;2.03;;;15.80;99.90;;;;;;5017580;28;20111;-43
2022/07/16 03:08:57;;;;;;;7.30;2.05;;;15.80;99.90;;;;;;5017839;28;20046;-45
2022/07/16 03:11:23;;;;;;;7.80;3.13;;;15.70;99.90;;;;;;4997181;28;20575;-43
2022/07/16 03:13:52;;;;;;;5.80;2.70;;;15.70;99.90;;;;;;5021380;28;20056;-44
2022/07/16 03:16:18;;;;;;;6.28;2.40;;;15.60;99.90;;;;;;5024151;28;20128;-44
2022/07/16 03:18:44;;;;;;;6.82;2.17;;;15.60;99.90;;;;;;5006508;28;20060;-42
2022/07/16 03:21:11;;;;;;;5.13;1.90;;;15.50;99.90;;;;;;5025447;28;20053;-43
2022/07/16 03:23:37;;;;;;;4.90;1.98;;;15.50;99.90;;;;;;5024429;28;20056;-43
2022/07/16 03:26:03;;;;;;;8.27;2.33;;;15.40;99.90;;;;;;5024986;28;20064;-44
2022/07/16 03:28:29;;;;;;;6.45;2.97;;;15.30;99.90;;;;;;5024222;28;20060;-43
2022/07/16 03:30:55;;;;;;;7.60;2.55;;;15.30;99.90;;;;;;5016348;28;20206;-44
2022/07/16 03:33:22;;;;;;;7.65;2.42;;;15.20;99.90;;;;;;5005073;28;20052;-44
2022/07/16 03:35:48;;;;;;;5.40;2.33;;;15.20;99.90;;;;;;5004794;28;20046;-44
2022/07/16 03:40:59;;;;;;;5.32;2.30;;;15.10;99.90;;;;;;5005144;28;20177;-46
2022/07/16 03:43:28;;;;;;;7.10;2.65;;;15.00;99.90;;;;;;5004490;28;20057;-47
2022/07/16 03:45:54;;;;;;;5.13;2.58;;;15.00;99.90;;;;;;5005186;28;20634;-46
2022/07/16 03:48:20;;;;;;;8.48;3.15;;;15.00;99.90;;;;;;5004211;28;20049;-42
2022/07/16 03:50:47;;;;;;;10.82;2.70;;;14.90;99.90;;;;;;5005264;28;20145;-45
2022/07/16 03:53:13;;;;;;;9.90;2.75;;;14.90;99.90;;;;;;4996309;28;20152;-44
2022/07/16 03:55:39;;;;;;;9.07;3.50;;;14.90;99.90;;;;;;5023886;28;20099;-43
2022/07/16 03:58:05;;;;;;;6.47;2.65;;;14.80;99.90;;;;;;5023733;28;20049;-44
2022/07/16 04:00:32;;;;;;;8.07;2.75;;;14.90;99.90;;;;;;4990433;28;20080;-44
2022/07/16 04:02:58;;;;;;;5.30;2.55;;;14.90;99.90;;;;;;5003975;28;20056;-41
2022/07/16 04:05:24;;;;;;;5.10;2.30;;;15.00;99.90;;;;;;5021105;28;20045;-42
2022/07/16 04:07:50;;;;;;;6.20;2.63;;;15.30;99.90;;;;;;5015435;28;20073;-44
2022/07/16 04:10:18;;;;;;;6.22;2.53;;;15.80;99.90;;;;;;4989737;28;20050;-41
2022/07/16 04:12:44;;;;;;;9.68;2.63;;;16.30;99.90;;;;;;5023661;28;20060;-44
2022/07/16 04:15:10;;;;;;;9.00;2.45;;;16.70;99.90;;;;;;5014254;28;20049;-46
2022/07/16 04:17:36;;;;;;;5.93;2.47;;;17.20;99.90;;;;;;5005487;28;20049;-43
2022/07/16 04:20:04;;;;;;;5.93;2.10;;;17.70;99.90;;;;;;5006363;28;20057;-44
2022/07/16 04:22:30;;;;;;;5.43;1.90;;;18.20;99.90;;;;;;5015973;28;20041;-43
2022/07/16 04:24:56;;;;;;;5.82;2.13;;;18.30;99.90;;;;;;5017987;28;20053;-44
2022/07/16 04:27:23;;;;;;;6.88;2.20;;;18.20;99.90;;;;;;4994526;28;20057;-43
2022/07/16 04:29:49;;;;;;;7.32;2.20;;;18.20;99.90;;;;;;5002532;28;20088;-45
2022/07/16 04:32:15;;;;;;;6.20;2.08;;;18.50;99.90;;;;;;5016301;28;20539;-44
2022/07/16 04:34:41;;;;;;;6.70;1.95;;;19.40;99.90;;;;;;5004910;28;20499;-44
2022/07/16 04:37:06;;;;;;;7.32;2.03;;;20.30;99.90;;;;;;5022893;28;20056;-44
2022/07/16 04:39:32;;;;;;;5.57;1.67;;;21.00;99.90;;;;;;5023659;28;20164;-44
2022/07/16 04:42:07;;;;;;;6.97;1.77;;;21.70;99.90;;;;;;5013546;28;20082;-46
2022/07/16 04:44:39;;;;;;;5.65;1.92;;;22.40;99.90;;;;;;5010154;28;20575;-45
2022/07/16 04:47:05;;;;;;;3.67;2.30;;;23.10;99.90;;;;;;5004652;28;20049;-47
2022/07/16 04:49:31;;;;;;;5.30;2.00;;;23.60;98.40;;;;;;5022804;28;20049;-45
2022/07/16 04:51:58;;;;;;;7.43;1.95;;;24.00;98.30;;;;;;5022406;28;20084;-48
2022/07/16 04:54:24;;;;;;;5.75;1.90;;;24.40;97.70;;;;;;5010207;28;20049;-43
2022/07/16 04:56:49;;;;;;;5.15;1.80;;;25.00;97.00;;;;;;5016626;28;20105;-43
2022/07/16 04:59:16;;;;;;;6.15;1.77;;;25.10;94.70;;;;;;5019173;28;20124;-49
2022/07/16 05:01:43;;;;;;;6.80;1.77;;;25.40;95.20;;;;;;5024096;28;20148;-45
2022/07/16 05:04:09;;;;;;;8.63;1.92;;;24.80;94.50;;;;;;5017923;28;20496;-46
2022/07/16 05:06:35;;;;;;;8.10;2.00;;;23.90;95.20;;;;;;4985180;28;20053;-47
2022/07/16 05:09:02;;;;;;;10.20;2.10;;;22.90;95.30;;;;;;4999086;28;20049;-48
2022/07/16 05:11:29;;;;;;;5.10;2.10;;;21.90;96.30;;;;;;5018587;28;20056;-45
2022/07/16 05:13:56;;;;;;;7.38;2.10;;;21.40;97.70;;;;;;5022709;28;20554;-44
2022/07/16 05:16:22;;;;;;;5.35;2.00;;;22.20;97.30;;;;;;5022675;28;20049;-45
2022/07/16 05:18:49;;;;;;;8.50;1.98;;;23.40;96.80;;;;;;5022584;28;20045;-45
2022/07/16 05:21:16;;;;;;;7.20;2.00;;;24.50;95.60;;;;;;4999013;28;20117;-43
2022/07/16 05:23:42;;;;;;;4.90;2.03;;;25.40;94.20;;;;;;4999356;28;20817;-45
2022/07/16 05:26:08;;;;;;;5.25;1.92;;;26.20;93.20;;;;;;5016744;28;20065;-45
2022/07/16 05:28:35;;;;;;;5.65;1.85;;;26.80;92.90;;;;;;5002922;28;20054;-44
2022/07/16 05:31:02;;;;;;;5.05;1.98;;;27.60;92.60;;;;;;5009260;28;20126;-45
2022/07/16 05:33:28;;;;;;;5.38;1.80;;;28.20;91.60;;;;;;5004037;28;20156;-46
2022/07/16 05:35:54;;;;;;;6.85;1.83;;;28.70;91.20;;;;;;5022210;28;20041;-44
2022/07/16 05:38:20;;;;;;;6.20;2.20;;;29.00;90.80;;;;;;5021508;28;20050;-44
2022/07/16 05:40:47;;;;;;;6.88;2.35;;;29.30;89.60;;;;;;5006378;28;20107;-44
2022/07/16 05:43:14;;;;;;;5.82;1.90;;;29.50;88.90;;;;;;5025987;28;20053;-46
2022/07/16 05:45:40;;;;;;;5.68;1.92;;;30.00;87.50;;;;;;5026516;28;20049;-45
2022/07/16 05:48:06;;;;;;;4.13;1.70;;;30.30;86.90;;;;;;5025613;28;20071;-44
2022/07/16 05:50:33;;;;;;;5.03;2.17;;;30.40;85.50;;;;;;5026277;28;20061;-47
2022/07/16 05:52:59;;;;;;;4.47;1.95;;;30.70;85.10;;;;;;5026490;28;20049;-47
2022/07/16 05:55:25;;;;;;;4.45;1.80;;;31.20;84.20;;;;;;5025972;28;20132;-47
2022/07/16 05:57:51;;;;;;;8.43;2.20;;;31.20;82.80;;;;;;5015530;28;20579;-45
2022/07/16 06:00:18;;;;;;;7.75;1.98;;;31.30;79.90;;;;;;5012486;28;20052;-45
2022/07/16 06:02:44;;;;;;;5.70;1.90;;;31.40;82.00;;;;;;5026098;28;20391;-46
2022/07/16 06:05:10;;;;;;;5.57;2.00;;;31.50;81.40;;;;;;5015246;28;20511;-46
2022/07/16 06:07:36;;;;;;;6.70;1.80;;;30.90;80.50;;;;;;5025671;28;20236;-45
2022/07/16 06:10:03;;;;;;;5.25;2.15;;;30.00;81.00;;;;;;5013089;28;20110;-46
2022/07/16 06:12:29;;;;;;;4.07;1.80;;;29.60;82.00;;;;;;5024870;28;20053;-45
2022/07/16 06:14:55;;;;;;;3.45;1.70;;;29.20;80.10;;;;;;5025151;28;20041;-48
2022/07/16 06:17:21;;;;;;;4.97;1.60;;;29.30;81.50;;;;;;5025402;28;20051;-45
2022/07/16 06:19:48;;;;;;;7.80;1.70;;;29.60;81.20;;;;;;5025058;28;20053;-52
2022/07/16 06:22:14;;;;;;;4.93;1.73;;;30.10;80.00;;;;;;5016281;28;20052;-49
2022/07/16 06:24:40;;;;;;;6.40;1.85;;;31.00;79.50;;;;;;5025274;28;20543;-46
2022/07/16 06:27:06;;;;;;;5.82;1.73;;;31.40;78.60;;;;;;5025049;28;20049;-46
2022/07/16 06:29:32;;;;;;;5.07;1.90;;;32.30;78.20;;;;;;5025414;28;20060;-46
2022/07/16 06:31:59;;;;;;;5.55;1.80;;;32.50;77.40;;;;;;5014584;28;20107;-46
2022/07/16 06:34:25;;;;;;;3.67;1.60;;;32.90;76.50;;;;;;5024655;28;20053;-46
2022/07/16 06:36:51;;;;;;;6.03;1.80;;;32.60;74.50;;;;;;5024508;28;20060;-47
2022/07/16 06:39:17;;;;;;;6.30;1.92;;;32.50;74.50;;;;;;5025479;28;20057;-47
2022/07/16 06:41:43;;;;;;;7.88;1.80;;;33.00;76.60;;;;;;5025465;28;20048;-48
2022/07/16 06:44:09;;;;;;;6.55;1.75;;;32.20;74.70;;;;;;5024950;28;20081;-47
2022/07/16 06:46:36;;;;;;;7.15;1.70;;;31.00;74.30;;;;;;5024727;28;20150;-45
2022/07/16 06:49:02;;;;;;;7.03;1.80;;;29.20;75.10;;;;;;5021809;28;20442;-46
2022/07/16 06:51:28;;;;;;;5.60;1.70;;;27.40;77.10;;;;;;5017532;28;20046;-46
2022/07/16 06:53:54;;;;;;;6.10;1.90;;;25.60;78.70;;;;;;5020147;28;20050;-44
2022/07/16 06:56:20;;;;;;;5.10;1.88;;;24.60;80.40;;;;;;5011925;28;20053;-44
2022/07/16 06:58:46;;;;;;;7.40;1.95;;;23.70;82.60;;;;;;4992718;28;20045;-44
2022/07/16 07:01:13;;;;;;;5.78;2.05;;;23.10;84.60;;;;;;5015979;28;20049;-45
2022/07/16 07:03:40;;;;;;;3.90;1.52;;;22.70;86.60;;;;;;5011846;28;20054;-44
2022/07/16 07:06:07;;;;;;;6.78;1.70;;;22.30;87.70;;;;;;5025607;28;20105;-45
2022/07/16 07:08:33;;;;;;;7.97;2.15;;;22.20;87.70;;;;;;5021861;28;20539;-45
2022/07/16 07:11:00;;;;;;;7.47;1.60;;;22.00;87.50;;;;;;5007667;28;20092;-44
2022/07/16 07:13:30;;;;;;;6.60;2.10;;;21.80;87.40;;;;;;5024303;28;20677;-44
2022/07/16 07:15:57;;;;;;;6.55;1.70;;;21.60;87.40;;;;;;5025055;28;20056;-45
2022/07/16 07:18:24;;;;;;;7.25;1.70;;;21.90;86.90;;;;;;5023583;28;20093;-45
2022/07/16 07:20:50;;;;;;;6.07;2.10;;;21.90;87.10;;;;;;5008884;28;20087;-47
2022/07/16 07:23:16;;;;;;;4.75;1.35;;;21.80;86.10;;;;;;5013294;28;20088;-45
2022/07/16 07:25:45;;;;;;;5.78;1.60;;;21.40;86.10;;;;;;5024632;28;20056;-45
2022/07/16 07:28:12;;;;;;;3.05;1.63;;;21.10;86.10;;;;;;5004999;28;20511;-43
2022/07/16 07:30:38;;;;;;;4.88;1.40;;;21.20;86.70;;;;;;5025573;28;20061;-45
2022/07/16 07:33:04;;;;;;;5.90;1.58;;;22.00;86.60;;;;;;5013505;28;20057;-46
2022/07/16 07:35:30;;;;;;;8.75;1.88;;;22.70;86.00;;;;;;4990778;28;20423;-49
2022/07/16 07:37:56;;;;;;;4.40;1.38;;;23.30;84.90;;;;;;5004776;28;20827;-44
2022/07/16 07:40:23;;;;;;;5.28;1.60;;;23.90;83.90;;;;;;5007052;28;20123;-45
2022/07/16 07:42:49;;;;;;;3.45;1.30;;;24.20;81.80;;;;;;5015768;28;20050;-46
2022/07/16 07:45:16;;;;;;;6.20;1.50;;;24.50;82.10;;;;;;5017647;28;20044;-43
2022/07/16 07:47:42;;;;;;;4.95;1.33;;;25.00;82.40;;;;;;5023960;28;20069;-45
2022/07/16 07:50:09;;;;;;;4.82;1.08;;;25.10;80.50;;;;;;5005955;28;20072;-45
2022/07/16 07:52:36;;;;;;;4.75;1.40;;;25.20;81.30;;;;;;5023910;28;20061;-44
2022/07/16 07:55:02;;;;;;;5.85;1.30;;;25.10;80.00;;;;;;5021541;28;20517;-44
2022/07/16 07:57:29;;;;;;;4.93;1.67;;;25.00;79.20;;;;;;5018388;28;20052;-47
2022/07/16 07:59:56;;;;;;;5.53;1.52;;;24.10;79.20;;;;;;5020553;28;20124;-45
2022/07/16 08:02:22;;;;;;;5.30;1.48;;;23.40;78.20;;;;;;5023890;28;20088;-46
2022/07/16 08:04:48;;;;;;;3.00;1.10;;;23.40;79.60;;;;;;4995084;28;20116;-45
2022/07/16 08:07:14;;;;;;;4.18;1.30;;;23.20;79.00;;;;;;5019478;28;20049;-44
2022/07/16 08:09:41;;;;;;;4.90;1.23;;;23.20;80.50;;;;;;5010872;28;20050;-45
2022/07/16 08:12:07;;;;;;;3.58;1.10;;;23.50;82.00;;;;;;5023566;28;20053;-44
2022/07/16 08:14:33;;;;;;;4.85;1.63;;;23.60;81.00;;;;;;4991512;28;20199;-43
2022/07/16 08:16:59;;;;;;;6.10;1.50;;;23.60;80.60;;;;;;5004154;28;20078;-46
2022/07/16 08:19:26;;;;;;;4.47;1.50;;;23.30;81.20;;;;;;5023481;28;20046;-45
2022/07/16 08:21:52;;;;;;;5.20;1.55;;;23.00;81.30;;;;;;5021560;28;20053;-46
2022/07/16 08:27:04;;;;;;;3.45;1.35;;;22.20;80.80;;;;;;5023096;28;20531;-47
2022/07/16 08:29:30;;;;;;;5.28;1.30;;;22.50;82.70;;;;;;5010996;28;20050;-45
2022/07/16 08:31:56;;;;;;;7.57;1.45;;;22.60;83.00;;;;;;5013535;28;20056;-45
2022/07/16 08:34:23;;;;;;;4.75;1.30;;;23.00;84.70;;;;;;5023905;28;20053;-45
2022/07/16 08:36:50;;;;;;;7.07;1.40;;;23.50;84.60;;;;;;5004616;28;20396;-45
2022/07/16 08:39:16;;;;;;;9.00;1.58;;;23.80;83.80;;;;;;5023406;28;20093;-44
2022/07/16 08:41:43;;;;;;;4.45;1.48;;;23.20;81.90;;;;;;5022918;28;20848;-45
2022/07/16 08:44:13;;;;;;;6.90;1.50;;;22.90;84.00;;;;;;5023744;28;20390;-44
2022/07/16 08:46:40;;;;;;;5.80;1.77;;;22.50;83.70;;;;;;5022759;28;20305;-44
2022/07/16 08:49:10;;;;;;;8.15;2.05;;;22.70;83.60;;;;;;5023201;28;20060;-45
2022/07/16 08:51:39;;;;;;;6.95;1.40;;;22.80;84.40;;;;;;5023171;28;20408;-46
2022/07/16 08:54:19;;;;;;;5.45;1.30;;;22.70;84.90;;;;;;5008363;28;20060;-45
2022/07/16 08:56:46;;;;;;;6.13;1.38;;;22.60;83.60;;;;;;5017807;28;20487;-44
2022/07/16 08:59:13;;;;;;;3.72;1.08;;;22.60;84.50;;;;;;5019443;28;20056;-45
2022/07/16 09:01:39;;;;;;;4.70;1.20;;;22.50;82.10;;;;;;5023240;28;20065;-46
2022/07/16 09:04:05;;;;;;;5.00;1.27;;;22.60;82.30;;;;;;5018741;28;20057;-47
2022/07/16 09:06:32;;;;;;;4.35;1.38;;;22.80;82.30;;;;;;5003592;28;20081;-47
2022/07/16 09:08:59;;;;;;;4.90;1.65;;;22.60;81.20;;;;;;5019164;28;20132;-47
2022/07/16 09:11:30;;;;;;;5.95;1.77;;;22.40;83.00;;;;;;5009879;28;20049;-44
2022/07/16 09:14:15;;;;;;;4.53;1.20;;;22.60;84.40;;;;;;5010983;28;20055;-44
2022/07/16 09:16:46;;;;;;;4.72;1.20;;;22.70;83.50;;;;;;5022581;28;20060;-45
2022/07/16 09:19:16;;;;;;;4.47;1.38;;;23.00;84.30;;;;;;5022838;28;20103;-46
2022/07/16 09:22:07;;;;;;;4.97;1.40;;;23.30;83.50;;;;;;5021932;28;20652;-47
2022/07/16 09:24:48;;;;;;;5.55;1.55;;;23.30;83.10;;;;;;5013581;28;20765;-44
2022/07/16 09:27:17;;;;;;;4.60;1.40;;;23.10;81.90;;;;;;5022436;28;20128;-44
2022/07/16 09:29:52;;;;;;;5.35;2.03;;;23.20;81.90;;;;;;5023191;28;20464;-44
2022/07/16 09:32:39;;;;;;;4.88;1.35;;;23.10;84.10;;;;;;5014138;28;20067;-43
2022/07/16 09:35:13;;;;;;;4.65;1.83;;;23.10;83.90;;;;;;5022672;28;20140;-44
2022/07/16 09:37:47;;;;;;;4.65;1.58;;;23.10;83.80;;;;;;5003324;28;20141;-46
2022/07/16 09:40:14;;;;;;;6.00;1.95;;;23.20;85.20;;;;;;4982631;28;20141;-44
2022/07/16 09:42:40;;;;;;;7.75;1.60;;;23.20;85.60;;;;;;4995965;28;20057;-46
2022/07/16 09:45:18;;;;;;;6.82;1.45;;;23.10;85.70;;;;;;5002713;28;20050;-44
2022/07/16 09:47:44;;;;;;;4.75;1.73;;;22.60;85.40;;;;;;5002338;28;20045;-47
2022/07/16 09:50:10;;;;;;;4.53;1.35;;;22.90;86.90;;;;;;5002486;28;20046;-44
2022/07/16 09:52:37;;;;;;;7.57;1.92;;;23.20;85.40;;;;;;5002049;28;20046;-44
2022/07/16 09:55:03;;;;;;;5.15;1.58;;;23.60;85.70;;;;;;5001816;28;20409;-45
2022/07/16 09:57:30;;;;;;;5.65;1.52;;;23.50;85.50;;;;;;5000474;28;20439;-47
2022/07/16 09:59:57;;;;;;;5.95;1.83;;;23.30;85.90;;;;;;4989663;28;20054;-44
2022/07/16 10:02:24;;;;;;;4.15;1.50;;;23.00;86.00;;;;;;4982916;28;20104;-44
2022/07/16 10:04:51;;;;;;;6.88;1.70;;;22.80;88.10;;;;;;4991489;28;20050;-46
2022/07/16 10:07:18;;;;;;;9.57;1.70;;;22.80;87.20;;;;;;4992207;28;20127;-47
2022/07/16 10:09:44;;;;;;;6.05;1.30;;;22.70;86.80;;;;;;4990811;28;20058;-45
2022/07/16 10:12:17;;;;;;;7.07;2.15;;;22.80;87.30;;;;;;4983671;28;20042;-48
2022/07/16 10:14:47;;;;;;;6.03;1.92;;;22.90;86.90;;;;;;4966821;28;20093;-46
2022/07/16 10:17:17;;;;;;;6.38;1.83;;;23.00;89.50;;;;;;4984452;28;20141;-45
2022/07/16 10:19:43;;;;;;;4.57;1.40;;;23.20;88.50;;;;;;4985046;28;20046;-44
2022/07/16 10:22:23;;;;;;;7.38;2.15;;;23.20;86.40;;;;;;4992216;28;20056;-45
2022/07/16 10:24:50;;;;;;;7.07;1.60;;;23.40;86.60;;;;;;5003496;28;20433;-44
2022/07/16 10:27:35;;;;;;;6.28;1.83;;;23.10;86.00;;;;;;4967935;28;20046;-44
2022/07/16 10:30:21;;;;;;;6.80;1.58;;;23.00;86.70;;;;;;4988509;28;20077;-47
2022/07/16 10:33:00;;;;;;;5.60;1.70;;;22.90;87.90;;;;;;4989104;28;20307;-49
2022/07/16 10:35:44;;;;;;;5.05;1.80;;;23.00;86.90;;;;;;4987372;28;20117;-44
2022/07/16 10:38:23;;;;;;;5.32;1.67;;;22.90;86.60;;;;;;5009080;28;20065;-46
2022/07/16 10:41:09;;;;;;;7.57;1.83;;;22.40;88.30;;;;;;5007082;28;20057;-44
2022/07/16 10:43:36;;;;;;;10.35;1.95;;;22.10;87.80;;;;;;5012162;28;20129;-47
2022/07/16 10:46:04;;;;;;;5.93;1.80;;;22.10;88.50;;;;;;4992111;28;20120;-44
2022/07/16 10:48:51;;;;;;;8.27;1.85;;;22.50;88.20;;;;;;5015834;28;20068;-46
2022/07/16 10:51:20;;;;;;;9.32;2.13;;;22.70;87.30;;;;;;5026454;28;20541;-44
2022/07/16 10:54:16;;;;;;;4.65;1.38;;;22.70;88.70;;;;;;5027111;28;20049;-46
2022/07/16 10:56:45;;;;;;;6.95;1.30;;;22.70;86.60;;;;;;5016454;28;20132;-45
2022/07/16 10:59:16;;;;;;;5.90;1.67;;;23.00;88.40;;;;;;5015723;28;20061;-48
2022/07/16 11:01:45;;;;;;;6.03;1.48;;;23.00;87.50;;;;;;4996503;28;20054;-44
2022/07/16 11:04:13;;;;;;;5.60;1.80;;;22.70;84.60;;;;;;5016343;28;20049;-46
2022/07/16 11:06:40;;;;;;;5.25;1.40;;;22.20;85.70;;;;;;5002246;28;20049;-47
2022/07/16 11:09:08;;;;;;;5.40;1.58;;;22.00;86.20;;;;;;5012004;28;20308;-45
2022/07/16 11:11:37;;;;;;;9.00;2.03;;;21.80;86.60;;;;;;5003765;28;20136;-44
2022/07/16 11:14:04;;;;;;;4.40;1.60;;;21.90;87.50;;;;;;4998674;28;20080;-44
2022/07/16 11:16:30;;;;;;;6.05;2.15;;;22.10;86.70;;;;;;4987617;28;20523;-44
2022/07/16 11:19:00;;;;;;;8.05;1.63;;;21.90;85.00;;;;;;5005826;28;20079;-44
2022/07/16 11:21:27;;;;;;;4.97;1.73;;;21.60;85.20;;;;;;5009111;28;20213;-45
2022/07/16 11:24:01;;;;;;;7.28;1.83;;;21.30;85.40;;;;;;5026031;28;20694;-45
2022/07/16 11:26:28;;;;;;;6.28;1.38;;;21.30;86.40;;;;;;5025848;28;20045;-45
2022/07/16 11:28:58;;;;;;;5.80;1.50;;;21.70;88.10;;;;;;5026129;28;20053;-45
2022/07/16 11:31:35;;;;;;;7.47;1.92;;;22.10;88.40;;;;;;5010203;28;20060;-44
2022/07/16 11:34:03;;;;;;;7.20;2.28;;;22.10;85.50;;;;;;5006324;28;20045;-46
2022/07/16 11:36:33;;;;;;;5.85;1.40;;;21.90;86.40;;;;;;5006175;28;20048;-46
2022/07/16 11:39:08;;;;;;;6.40;1.67;;;22.10;87.40;;;;;;4987938;28;20411;-46
2022/07/16 11:41:37;;;;;;;8.60;1.52;;;22.20;85.30;;;;;;4997965;28;20057;-45
2022/07/16 11:44:14;;;;;;;11.32;3.28;;;22.30;85.10;;;;;;4988078;28;20057;-45
2022/07/16 11:46:44;;;;;;;5.90;1.95;;;22.30;83.70;;;;;;5005056;28;20042;-44
2022/07/16 11:49:12;;;;;;;7.97;1.70;;;22.50;85.90;;;;;;4987980;28;20093;-46
2022/07/16 11:51:41;;;;;;;6.05;1.60;;;22.60;85.90;;;;;;5006302;28;20065;-43
2022/07/16 11:54:07;;;;;;;4.63;1.63;;;22.90;84.60;;;;;;5005872;28;20117;-46
2022/07/16 11:56:37;;;;;;;7.72;1.67;;;23.20;84.80;;;;;;5006030;28;20053;-45
2022/07/16 11:59:23;;;;;;;7.43;1.88;;;23.20;84.50;;;;;;4996512;28;20459;-44
2022/07/16 12:02:01;;;;;;;8.07;2.00;;;23.30;82.40;;;;;;5013793;28;20049;-44
2022/07/16 12:04:40;;;;;;;6.47;1.90;;;23.50;84.80;;;;;;5014843;28;20042;-49
2022/07/16 12:07:17;;;;;;;6.38;1.90;;;23.50;81.70;;;;;;5023635;28;20068;-48
2022/07/16 12:09:46;;;;;;;10.05;2.10;;;23.40;82.80;;;;;;5040037;28;20083;-45
2022/07/16 12:12:19;;;;;;;7.97;2.38;;;23.00;82.50;;;;;;5017846;28;20056;-46
2022/07/16 12:14:52;;;;;;;5.85;1.80;;;22.90;85.10;;;;;;5006253;28;20057;-44
2022/07/16 12:17:30;;;;;;;8.82;2.70;;;22.60;84.10;;;;;;5043786;28;20096;-46
2022/07/16 12:20:14;;;;;;;15.35;4.10;;;22.50;86.50;;;;;;5044944;28;20045;-47
2022/07/16 12:22:59;;;;;;;5.82;1.60;;;22.70;86.60;;;;;;5037761;28;20049;-45
2022/07/16 12:25:31;;;;;;;4.10;1.60;;;23.10;83.60;;;;;;5044713;28;20403;-46
2022/07/16 12:28:09;;;;;;;8.45;1.88;;;23.30;84.50;;;;;;5027042;28;20052;-46
2022/07/16 12:30:49;;;;;;;10.35;2.42;;;23.10;83.30;;;;;;5035793;28;20041;-44
2022/07/16 12:33:24;;;;;;;12.43;2.55;;;23.20;84.80;;;;;;5032124;28;20112;-43
2022/07/16 12:36:00;;;;;;;11.15;3.22;;;23.30;85.50;;;;;;5040167;28;20358;-47
2022/07/16 12:38:50;;;;;;;9.45;2.10;;;23.40;84.70;;;;;;5005149;28;20119;-44
2022/07/16 12:41:47;;;;;;;5.20;2.08;;;23.20;83.20;;;;;;5019642;28;20103;-45
2022/07/16 12:44:18;;;;;;;4.55;2.15;;;22.90;82.10;;;;;;5031309;28;20463;-44
2022/07/16 12:46:51;;;;;;;7.35;1.73;;;22.90;85.80;;;;;;5038591;28;20036;-45
2022/07/16 12:49:27;;;;;;;5.53;1.80;;;23.10;85.30;;;;;;5040907;28;20136;-44
2022/07/16 12:51:56;;;;;;;4.20;1.55;;;23.20;84.70;;;;;;5026199;28;20589;-45
2022/07/16 12:54:23;;;;;;;8.35;1.92;;;23.00;84.70;;;;;;5044448;28;20056;-45
2022/07/16 12:59:34;;;;;;;6.00;1.75;;;22.90;84.70;;;;;;5024291;28;20523;-47
2022/07/16 13:02:01;;;;;;;4.80;1.70;;;23.10;84.30;;;;;;5018174;28;20053;-44